createdAt,value
2017-10-14T00:01:25.666Z,57.10
2017-10-14T00:03:54.536Z,57.50
2017-10-14T00:06:22.619Z,57.40
2017-10-14T00:08:50.703Z,57.10
2017-10-14T00:11:19.786Z,56.50
2017-10-14T00:13:47.939Z,56.40
2017-10-14T00:16:16.032Z,57.10
2017-10-14T00:18:44.119Z,57.50
2017-10-14T00:21:13.124Z,58.10
2017-10-14T00:23:41.983Z,57.00
2017-10-14T00:26:10.069Z,57.60
2017-10-14T00:28:38.171Z,57.40
2017-10-14T00:31:06.292Z,57.30
2017-10-14T00:33:34.384Z,57.50
2017-10-14T00:36:02.464Z,57.80
2017-10-14T00:38:30.652Z,57.20
2017-10-14T00:40:59.495Z,57.40
2017-10-14T00:43:27.604Z,57.30
2017-10-14T00:45:56.460Z,58.20
2017-10-14T00:48:24.536Z,57.40
2017-10-14T00:50:52.644Z,57.80
2017-10-14T00:53:21.499Z,58.20
2017-10-14T00:55:49.596Z,58.10
2017-10-14T00:58:17.680Z,58.10
2017-10-14T01:00:45.789Z,58.60
2017-10-14T01:03:13.881Z,58.40
2017-10-14T01:05:42.909Z,58.50
2017-10-14T01:08:10.983Z,58.80
2017-10-14T01:10:39.069Z,58.80
2017-10-14T01:13:07.922Z,59.40
2017-10-14T01:15:36.012Z,59.30
2017-10-14T01:18:04.092Z,59.30
2017-10-14T01:20:32.188Z,59.00
2017-10-14T01:23:01.165Z,59.20
2017-10-14T01:25:30.038Z,59.00
2017-10-14T01:27:58.112Z,58.80
2017-10-14T01:30:26.204Z,58.90
2017-10-14T01:32:55.057Z,59.00
2017-10-14T01:35:23.144Z,59.00
2017-10-14T01:37:51.227Z,59.40
2017-10-14T01:40:19.323Z,59.00
2017-10-14T01:42:48.168Z,58.80
2017-10-14T01:45:16.266Z,58.70
2017-10-14T01:47:44.382Z,59.10
2017-10-14T01:50:12.471Z,59.20
2017-10-14T01:52:40.549Z,59.20
2017-10-14T01:55:08.636Z,59.50
2017-10-14T01:57:36.737Z,59.40
2017-10-14T02:00:04.811Z,59.50
2017-10-14T02:02:33.667Z,59.30
2017-10-14T02:05:01.976Z,58.80
2017-10-14T02:07:30.840Z,58.90
2017-10-14T02:09:58.936Z,58.70
2017-10-14T02:12:27.025Z,58.50
2017-10-14T02:14:55.876Z,58.40
2017-10-14T02:17:23.973Z,58.30
2017-10-14T02:19:52.264Z,58.40
2017-10-14T02:22:21.115Z,58.60
2017-10-14T02:24:49.188Z,58.50
2017-10-14T02:27:17.271Z,58.90
2017-10-14T02:29:45.356Z,59.00
2017-10-14T02:32:13.449Z,59.30
2017-10-14T02:34:42.293Z,59.90
2017-10-14T02:37:10.379Z,59.90
2017-10-14T02:39:38.468Z,59.90
2017-10-14T02:42:06.627Z,60.00
2017-10-14T02:44:34.714Z,60.00
2017-10-14T02:47:02.812Z,59.80
2017-10-14T02:49:31.659Z,59.60
2017-10-14T02:51:59.747Z,59.50
2017-10-14T02:54:27.841Z,59.50
2017-10-14T02:56:56.712Z,59.50
2017-10-14T02:59:24.792Z,59.30
2017-10-14T03:01:52.915Z,59.10
2017-10-14T03:04:21.756Z,59.30
2017-10-14T03:06:49.843Z,59.30
2017-10-14T03:09:18.714Z,59.90
2017-10-14T03:11:46.797Z,59.90
2017-10-14T03:14:15.665Z,60.70
2017-10-14T03:16:43.753Z,60.60
2017-10-14T03:19:11.854Z,61.20
2017-10-14T03:21:40.693Z,60.60
2017-10-14T03:24:08.789Z,60.50
2017-10-14T03:26:36.881Z,60.90
2017-10-14T03:29:05.751Z,60.70
2017-10-14T03:31:33.847Z,60.60
2017-10-14T03:34:02.708Z,61.10
2017-10-14T03:36:30.784Z,61.00
2017-10-14T03:38:58.875Z,60.70
2017-10-14T03:41:27.727Z,60.90
2017-10-14T03:43:55.826Z,60.80
2017-10-14T03:46:23.903Z,60.80
2017-10-14T03:48:51.984Z,60.70
2017-10-14T03:51:20.832Z,60.60
2017-10-14T03:53:48.923Z,60.40
2017-10-14T03:56:17.021Z,60.30
2017-10-14T03:58:45.882Z,59.70
2017-10-14T04:01:13.972Z,59.60
2017-10-14T04:03:42.060Z,60.00
2017-10-14T04:06:10.908Z,60.30
2017-10-14T04:08:39.018Z,60.90
2017-10-14T04:11:07.873Z,60.50
2017-10-14T04:13:35.972Z,60.40
2017-10-14T04:16:04.050Z,60.10
2017-10-14T04:18:32.925Z,60.20
2017-10-14T04:21:01.027Z,60.10
2017-10-14T04:23:29.108Z,60.30
2017-10-14T04:25:57.224Z,60.00
2017-10-14T04:28:25.308Z,60.10
2017-10-14T04:30:53.412Z,60.30
2017-10-14T04:33:22.267Z,60.50
2017-10-14T04:35:50.365Z,60.40
2017-10-14T04:38:18.440Z,60.20
2017-10-14T04:40:46.524Z,60.80
2017-10-14T04:43:15.376Z,60.40
2017-10-14T04:45:43.472Z,60.20
2017-10-14T04:48:11.552Z,60.50
2017-10-14T04:50:39.680Z,60.70
2017-10-14T04:53:07.769Z,60.60
2017-10-14T04:55:35.880Z,60.80
2017-10-14T04:58:04.727Z,60.20
2017-10-14T05:00:32.815Z,60.10
2017-10-14T05:03:00.907Z,60.00
2017-10-14T05:05:29.762Z,62.30
2017-10-14T05:07:57.851Z,61.50
2017-10-14T05:10:25.945Z,61.10
2017-10-14T05:12:54.029Z,61.30
2017-10-14T05:15:22.887Z,61.40
2017-10-14T05:17:50.971Z,61.40
2017-10-14T05:20:19.095Z,61.00
2017-10-14T05:22:47.180Z,61.40
2017-10-14T05:25:15.267Z,61.40
2017-10-14T05:27:43.439Z,61.30
2017-10-14T05:30:11.532Z,60.60
2017-10-14T05:32:39.636Z,60.80
2017-10-14T05:35:07.737Z,60.80
2017-10-14T05:37:35.833Z,60.50
2017-10-14T05:40:03.937Z,59.90
2017-10-14T05:42:32.035Z,59.70
2017-10-14T05:45:00.872Z,59.60
2017-10-14T05:47:28.960Z,59.50
2017-10-14T05:49:57.040Z,59.60
2017-10-14T05:52:25.120Z,59.50
2017-10-14T05:54:53.193Z,58.70
2017-10-14T05:57:21.292Z,58.80
2017-10-14T05:59:49.379Z,58.90
2017-10-14T06:02:17.465Z,58.20
2017-10-14T06:04:46.306Z,58.40
2017-10-14T06:07:15.171Z,58.20
2017-10-14T06:09:43.257Z,58.10
2017-10-14T06:12:11.340Z,58.30
2017-10-14T06:14:39.412Z,57.90
2017-10-14T06:17:08.267Z,58.00
2017-10-14T06:19:36.344Z,57.60
2017-10-14T06:22:04.430Z,57.80
2017-10-14T06:24:32.505Z,57.40
2017-10-14T06:27:00.625Z,57.30
2017-10-14T06:29:28.697Z,57.50
2017-10-14T06:31:56.782Z,57.80
2017-10-14T06:34:25.636Z,57.30
2017-10-14T06:36:54.493Z,57.10
2017-10-14T06:39:22.584Z,57.00
2017-10-14T06:41:50.659Z,57.10
2017-10-14T06:44:19.519Z,58.10
2017-10-14T06:46:47.608Z,57.50
2017-10-14T06:49:15.717Z,57.30
2017-10-14T06:51:44.564Z,56.90
2017-10-14T06:54:12.662Z,56.90
2017-10-14T06:56:41.521Z,56.30
2017-10-14T06:59:09.621Z,56.10
2017-10-14T07:01:37.692Z,56.20
2017-10-14T07:04:06.556Z,55.20
2017-10-14T07:06:34.635Z,55.10
2017-10-14T07:09:02.732Z,55.00
2017-10-14T07:11:30.800Z,54.70
2017-10-14T07:13:58.879Z,54.80
2017-10-14T07:16:26.956Z,54.50
2017-10-14T07:18:55.814Z,55.00
2017-10-14T07:21:23.892Z,54.90
2017-10-14T07:23:51.989Z,54.00
2017-10-14T07:26:20.067Z,54.10
2017-10-14T07:28:48.925Z,53.20
2017-10-14T07:31:17.008Z,53.10
2017-10-14T07:33:45.091Z,53.10
2017-10-14T07:36:13.183Z,52.40
2017-10-14T07:38:42.065Z,51.20
2017-10-14T07:41:10.912Z,50.90
2017-10-14T07:43:38.995Z,50.80
2017-10-14T07:46:07.088Z,50.50
2017-10-14T07:48:35.170Z,50.80
2017-10-14T07:51:03.269Z,50.40
2017-10-14T07:53:31.356Z,50.50
2017-10-14T07:55:59.453Z,49.90
2017-10-14T07:58:27.534Z,50.20
2017-10-14T08:00:55.629Z,49.20
2017-10-14T08:03:23.701Z,49.00
2017-10-14T08:05:51.885Z,48.60
2017-10-14T08:08:20.756Z,48.40
2017-10-14T08:10:48.847Z,48.30
2017-10-14T08:13:16.927Z,48.70
2017-10-14T08:15:45.781Z,47.50
2017-10-14T08:18:13.865Z,47.50
2017-10-14T08:20:41.952Z,47.60
2017-10-14T08:23:10.039Z,47.10
2017-10-14T08:25:38.904Z,46.90
2017-10-14T08:28:06.992Z,46.80
2017-10-14T08:30:35.866Z,46.30
2017-10-14T08:33:03.948Z,46.40
2017-10-14T08:35:32.032Z,46.40
2017-10-14T08:38:00.117Z,45.60
2017-10-14T08:40:28.972Z,45.30
2017-10-14T08:42:57.285Z,45.30
2017-10-14T08:45:26.126Z,45.30
2017-10-14T08:47:54.209Z,45.20
2017-10-14T08:50:22.301Z,44.70
2017-10-14T08:52:50.413Z,44.50
2017-10-14T08:55:18.497Z,45.30
2017-10-14T08:57:46.568Z,44.60
2017-10-14T09:00:14.660Z,44.80
2017-10-14T09:02:42.737Z,44.00
2017-10-14T09:05:11.747Z,43.60
2017-10-14T09:07:39.837Z,43.20
2017-10-14T09:10:08.720Z,42.70
2017-10-14T09:12:36.828Z,42.60
2017-10-14T09:15:04.949Z,42.90
2017-10-14T09:17:33.031Z,42.20
2017-10-14T09:20:01.111Z,42.50
2017-10-14T09:22:29.212Z,41.70
2017-10-14T09:24:58.066Z,41.50
2017-10-14T09:27:26.196Z,41.40
2017-10-14T09:29:54.289Z,41.10
2017-10-14T09:32:22.376Z,40.90
2017-10-14T09:34:51.342Z,40.90
2017-10-14T09:37:19.430Z,40.30
2017-10-14T09:39:47.492Z,40.00
2017-10-14T09:42:15.598Z,39.80
2017-10-14T09:44:43.668Z,39.20
2017-10-14T09:47:11.739Z,39.40
2017-10-14T09:49:39.815Z,38.70
2017-10-14T09:52:07.898Z,38.50
2017-10-14T09:54:35.985Z,39.00
2017-10-14T09:57:04.824Z,37.90
2017-10-14T09:59:32.917Z,37.80
2017-10-14T10:02:00.987Z,37.90
2017-10-14T10:04:29.066Z,37.90
2017-10-14T10:06:57.140Z,37.90
2017-10-14T10:09:25.216Z,36.70
2017-10-14T10:11:53.312Z,37.90
2017-10-14T10:14:22.192Z,37.70
2017-10-14T10:16:50.257Z,37.60
2017-10-14T10:19:18.332Z,37.90
2017-10-14T10:21:47.225Z,36.30
2017-10-14T10:24:15.295Z,36.20
2017-10-14T10:26:43.379Z,36.10
2017-10-14T10:29:12.236Z,33.70
2017-10-14T10:31:40.324Z,33.70
2017-10-14T10:34:08.395Z,33.70
2017-10-14T10:36:36.476Z,33.60
2017-10-14T10:39:05.159Z,33.70
2017-10-14T10:41:33.260Z,33.80
2017-10-14T10:44:02.096Z,33.00
2017-10-14T10:46:30.177Z,33.00
2017-10-14T10:48:58.265Z,33.10
2017-10-14T10:51:26.332Z,32.40
2017-10-14T10:53:54.408Z,30.00
2017-10-14T10:56:22.475Z,30.80
2017-10-14T10:58:50.564Z,29.90
2017-10-14T11:01:18.644Z,29.70
2017-10-14T11:03:47.503Z,29.80
2017-10-14T11:06:15.571Z,29.70
2017-10-14T11:08:43.659Z,29.20
2017-10-14T11:11:11.732Z,28.80
2017-10-14T11:13:39.827Z,28.50
2017-10-14T11:16:08.676Z,28.90
2017-10-14T11:18:36.752Z,28.90
2017-10-14T11:21:04.836Z,29.10
2017-10-14T11:23:32.921Z,29.10
2017-10-14T11:26:00.998Z,27.90
2017-10-14T11:28:29.071Z,27.90
2017-10-14T11:30:57.148Z,29.00
2017-10-14T11:33:25.224Z,28.30
2017-10-14T11:35:54.085Z,27.20
2017-10-14T11:38:22.165Z,27.20
2017-10-14T11:40:50.251Z,27.40
2017-10-14T11:43:18.320Z,27.20
2017-10-14T11:45:46.403Z,27.00
2017-10-14T11:48:15.245Z,27.30
2017-10-14T11:50:43.316Z,27.30
2017-10-14T11:53:11.400Z,26.60
2017-10-14T11:55:39.510Z,26.60
2017-10-14T11:58:08.368Z,26.80
2017-10-14T12:00:36.444Z,26.70
2017-10-14T12:03:04.526Z,26.80
2017-10-14T12:05:32.632Z,26.80
2017-10-14T12:08:01.492Z,26.70
2017-10-14T12:10:29.572Z,26.60
2017-10-14T12:12:57.647Z,26.10
2017-10-14T12:15:25.720Z,25.70
2017-10-14T12:17:53.800Z,25.50
2017-10-14T12:20:22.637Z,26.50
2017-10-14T12:22:50.728Z,26.40
2017-10-14T12:25:18.800Z,25.90
2017-10-14T12:27:46.872Z,26.10
2017-10-14T12:30:14.951Z,25.90
2017-10-14T12:32:43.028Z,26.00
2017-10-14T12:35:11.131Z,26.00
2017-10-14T12:37:39.979Z,25.60
2017-10-14T12:40:08.072Z,25.60
2017-10-14T12:42:36.147Z,25.40
2017-10-14T12:45:04.230Z,25.20
2017-10-14T12:47:32.313Z,25.70
2017-10-14T12:50:00.480Z,25.80
2017-10-14T12:52:28.556Z,24.80
2017-10-14T12:54:57.849Z,25.30
2017-10-14T12:57:25.924Z,25.20
2017-10-14T12:59:53.999Z,25.40
2017-10-14T13:02:22.075Z,24.70
2017-10-14T13:04:50.923Z,24.80
2017-10-14T13:07:19.000Z,24.80
2017-10-14T13:09:47.100Z,25.10
2017-10-14T13:12:15.175Z,24.80
2017-10-14T13:14:43.253Z,25.50
2017-10-14T13:17:12.323Z,24.90
2017-10-14T13:19:41.198Z,24.40
2017-10-14T13:22:09.290Z,24.40
2017-10-14T13:24:37.439Z,25.00
2017-10-14T13:27:05.512Z,24.60
2017-10-14T13:29:33.600Z,24.60
2017-10-14T13:32:01.672Z,25.20
2017-10-14T13:34:29.744Z,25.00
2017-10-14T13:36:57.819Z,24.60
2017-10-14T13:39:25.904Z,24.50
2017-10-14T13:41:53.976Z,24.40
2017-10-14T13:44:22.127Z,23.50
2017-10-14T13:46:50.964Z,23.50
2017-10-14T13:49:19.823Z,23.60
2017-10-14T13:51:47.916Z,23.50
2017-10-14T13:54:15.995Z,23.50
2017-10-14T13:56:44.073Z,23.50
2017-10-14T13:59:13.031Z,24.20
2017-10-14T14:01:41.108Z,23.80
2017-10-14T14:04:09.213Z,24.00
2017-10-14T14:06:38.049Z,23.00
2017-10-14T14:09:06.149Z,22.90
2017-10-14T14:11:34.233Z,21.90
2017-10-14T14:14:02.320Z,21.60
2017-10-14T14:16:31.156Z,22.70
2017-10-14T14:18:59.995Z,23.90
2017-10-14T14:21:28.832Z,23.10
2017-10-14T14:23:56.925Z,23.10
2017-10-14T14:26:25.003Z,22.90
2017-10-14T14:28:53.073Z,22.80
2017-10-14T14:31:21.152Z,22.30
2017-10-14T14:33:49.240Z,22.60
2017-10-14T14:36:17.300Z,22.80
2017-10-14T14:38:45.391Z,22.80
2017-10-14T14:41:13.455Z,22.90
2017-10-14T14:43:41.531Z,23.30
2017-10-14T14:46:09.600Z,23.00
2017-10-14T14:48:37.673Z,23.70
2017-10-14T14:51:05.736Z,23.10
2017-10-14T14:53:33.821Z,23.30
2017-10-14T14:56:01.899Z,23.00
2017-10-14T14:58:29.984Z,23.60
2017-10-14T15:00:58.829Z,23.70
2017-10-14T15:03:26.939Z,23.60
2017-10-14T15:05:54.991Z,23.60
2017-10-14T15:08:23.060Z,24.10
2017-10-14T15:10:51.361Z,23.50
2017-10-14T15:13:25.976Z,23.60
2017-10-14T15:15:54.054Z,23.60
2017-10-14T15:18:22.912Z,23.80
2017-10-14T15:20:51.003Z,23.80
2017-10-14T15:23:19.085Z,23.50
2017-10-14T15:25:47.156Z,24.00
2017-10-14T15:28:15.248Z,24.20
2017-10-14T15:30:44.103Z,24.10
2017-10-14T15:33:12.168Z,24.00
2017-10-14T15:35:40.242Z,24.70
2017-10-14T15:38:08.327Z,24.40
2017-10-14T15:40:36.400Z,24.40
2017-10-14T15:43:05.287Z,24.70
2017-10-14T15:45:33.364Z,25.20
2017-10-14T15:48:01.446Z,25.20
2017-10-14T15:50:29.516Z,25.40
2017-10-14T15:52:57.592Z,25.70
2017-10-14T15:55:25.663Z,25.10
2017-10-14T15:57:53.720Z,25.00
2017-10-14T16:00:21.800Z,25.70
2017-10-14T16:02:49.869Z,26.10
2017-10-14T16:05:17.952Z,26.90
2017-10-14T16:07:46.024Z,26.40
2017-10-14T16:10:14.099Z,31.20
2017-10-14T16:12:42.175Z,26.60
2017-10-14T16:15:10.252Z,27.50
2017-10-14T16:17:39.083Z,27.50
2017-10-14T16:20:07.157Z,27.40
2017-10-14T16:22:35.244Z,27.40
2017-10-14T16:25:03.330Z,28.40
2017-10-14T16:27:31.403Z,31.40
2017-10-14T16:29:59.479Z,29.10
2017-10-14T16:32:27.552Z,29.80
2017-10-14T16:34:55.627Z,28.30
2017-10-14T16:37:23.705Z,30.20
2017-10-14T16:39:51.783Z,30.20
2017-10-14T16:42:19.868Z,30.10
2017-10-14T16:44:47.938Z,30.00
2017-10-14T16:47:16.773Z,30.80
2017-10-14T16:49:44.851Z,30.80
2017-10-14T16:52:12.924Z,31.30
2017-10-14T16:54:41.785Z,33.30
2017-10-14T16:57:09.916Z,33.30
2017-10-14T16:59:38.008Z,33.90
2017-10-14T17:02:06.076Z,34.90
2017-10-14T17:04:34.155Z,34.30
2017-10-14T17:07:03.005Z,34.90
2017-10-14T17:09:31.159Z,34.80
2017-10-14T17:11:59.241Z,35.70
2017-10-14T17:14:27.332Z,36.20
2017-10-14T17:16:55.452Z,36.60
2017-10-14T17:19:24.299Z,38.10
2017-10-14T17:21:52.374Z,38.20
2017-10-14T17:24:20.461Z,37.80
2017-10-14T17:26:48.539Z,38.40
2017-10-14T17:29:16.619Z,38.20
2017-10-14T17:31:45.483Z,38.40
2017-10-14T17:34:13.584Z,38.30
2017-10-14T17:36:42.627Z,40.60
2017-10-14T17:39:10.707Z,40.20
2017-10-14T17:41:38.790Z,40.20
2017-10-14T17:44:06.864Z,40.80
2017-10-14T17:46:34.952Z,41.50
2017-10-14T17:49:03.022Z,41.80
2017-10-14T17:51:31.112Z,41.70
2017-10-14T17:53:59.188Z,43.30
2017-10-14T17:56:28.045Z,44.20
2017-10-14T17:58:56.190Z,44.10
2017-10-14T18:01:24.290Z,42.30
2017-10-14T18:03:52.380Z,42.30
2017-10-14T18:06:20.518Z,42.90
2017-10-14T18:08:48.667Z,43.00
2017-10-14T18:11:16.765Z,43.20
2017-10-14T18:13:44.839Z,44.10
2017-10-14T18:16:12.927Z,43.70
2017-10-14T18:18:41.007Z,44.70
2017-10-14T18:21:09.100Z,43.80
2017-10-14T18:23:37.174Z,43.80
2017-10-14T18:26:05.266Z,43.90
2017-10-14T18:28:34.107Z,43.30
2017-10-14T18:31:02.866Z,43.30
2017-10-14T18:33:30.964Z,43.40
2017-10-14T18:35:59.077Z,43.60
2017-10-14T18:38:27.156Z,44.00
2017-10-14T18:40:56.013Z,45.90
2017-10-14T18:43:24.091Z,45.20
2017-10-14T18:45:52.180Z,45.10
2017-10-14T18:48:20.264Z,45.10
2017-10-14T18:50:49.126Z,44.90
2017-10-14T18:53:17.213Z,44.80
2017-10-14T18:55:45.306Z,44.80
2017-10-14T18:58:14.152Z,44.60
2017-10-14T19:00:42.280Z,44.50
2017-10-14T19:03:10.364Z,45.30
2017-10-14T19:05:38.454Z,45.20
2017-10-14T19:08:07.305Z,45.50
2017-10-14T19:10:36.154Z,45.90
2017-10-14T19:13:04.249Z,45.80
2017-10-14T19:15:32.371Z,46.00
2017-10-14T19:18:00.462Z,46.00
2017-10-14T19:20:28.546Z,46.00
2017-10-14T19:22:56.650Z,46.00
2017-10-14T19:25:25.513Z,46.00
2017-10-14T19:27:53.605Z,45.90
2017-10-14T19:30:21.692Z,45.80
2017-10-14T19:32:50.561Z,46.50
2017-10-14T19:35:18.656Z,46.30
2017-10-14T19:37:47.515Z,46.20
2017-10-14T19:40:15.632Z,45.90
2017-10-14T19:42:44.501Z,46.20
2017-10-14T19:45:12.658Z,46.10
2017-10-14T19:47:40.784Z,46.00
2017-10-14T19:50:08.926Z,46.30
2017-10-14T19:52:37.823Z,47.60
2017-10-14T19:55:06.778Z,47.60
2017-10-14T19:57:34.939Z,47.60
2017-10-14T20:00:03.051Z,48.50
2017-10-14T20:02:31.967Z,48.60
2017-10-14T20:05:00.100Z,48.40
2017-10-14T20:07:28.225Z,48.70
2017-10-14T20:09:56.339Z,47.70
2017-10-14T20:12:24.466Z,47.60
2017-10-14T20:14:52.593Z,47.40
2017-10-14T20:17:20.688Z,46.30
2017-10-14T20:19:49.581Z,47.70
2017-10-14T20:22:18.461Z,47.70
2017-10-14T20:24:46.574Z,47.50
2017-10-14T20:27:14.742Z,47.90
2017-10-14T20:29:42.858Z,48.20
2017-10-14T20:32:11.031Z,48.00
2017-10-14T20:34:39.148Z,47.90
2017-10-14T20:37:08.033Z,48.70
2017-10-14T20:39:36.909Z,48.90
2017-10-14T20:42:05.040Z,48.80
2017-10-14T20:44:33.146Z,49.50
2017-10-14T20:47:01.258Z,49.60
2017-10-14T20:49:30.131Z,49.40
2017-10-14T20:51:59.013Z,50.20
2017-10-14T20:54:27.136Z,50.10
2017-10-14T20:56:55.244Z,50.60
2017-10-14T20:59:23.369Z,50.80
2017-10-14T21:01:51.510Z,51.00
2017-10-14T21:04:19.635Z,51.10
2017-10-14T21:06:48.501Z,51.40
2017-10-14T21:09:17.385Z,50.00
2017-10-14T21:11:46.269Z,49.40
2017-10-14T21:14:15.160Z,48.80
2017-10-14T21:16:44.050Z,48.30
2017-10-14T21:19:12.127Z,48.20
2017-10-14T21:21:40.985Z,48.10
2017-10-14T21:24:09.068Z,48.10
2017-10-14T21:26:37.149Z,48.50
2017-10-14T21:29:05.235Z,48.40
2017-10-14T21:31:34.094Z,48.30
2017-10-14T21:34:02.191Z,48.30
2017-10-14T21:36:30.276Z,47.90
2017-10-14T21:38:59.130Z,48.70
2017-10-14T21:41:27.244Z,48.60
2017-10-14T21:43:56.865Z,48.90
2017-10-14T21:46:24.955Z,48.80
2017-10-14T21:48:53.800Z,50.20
2017-10-14T21:51:21.887Z,50.20
2017-10-14T21:53:50.742Z,49.00
2017-10-14T21:56:18.834Z,49.00
2017-10-14T21:58:46.916Z,49.10
2017-10-14T22:01:15.849Z,49.50
2017-10-14T22:03:43.941Z,49.40
2017-10-14T22:06:12.033Z,50.20
2017-10-14T22:08:40.116Z,50.80
2017-10-14T22:11:08.239Z,50.60
2017-10-14T22:13:36.387Z,51.00
2017-10-14T22:16:05.389Z,52.10
2017-10-14T22:18:34.242Z,51.50
2017-10-14T22:21:02.365Z,51.40
2017-10-14T22:23:30.453Z,51.10
2017-10-14T22:25:59.319Z,52.50
2017-10-14T22:28:27.438Z,52.20
2017-10-14T22:30:55.544Z,51.10
2017-10-14T22:33:24.495Z,51.30
2017-10-14T22:35:52.605Z,51.20
2017-10-14T22:38:21.477Z,52.30
2017-10-14T22:40:49.633Z,52.10
2017-10-14T22:43:17.760Z,52.00
2017-10-14T22:45:45.869Z,52.40
2017-10-14T22:48:13.985Z,52.90
2017-10-14T22:50:42.083Z,52.00
2017-10-14T22:53:10.214Z,52.10
2017-10-14T22:55:38.329Z,51.40
2017-10-14T22:58:06.452Z,51.70
2017-10-14T23:00:34.559Z,51.40
2017-10-14T23:03:03.432Z,52.20
2017-10-14T23:05:31.549Z,52.00
2017-10-14T23:07:59.651Z,52.00
2017-10-14T23:10:27.761Z,52.10
2017-10-14T23:12:55.985Z,51.80
2017-10-14T23:15:24.090Z,51.40
2017-10-14T23:17:52.233Z,51.50
2017-10-14T23:20:20.345Z,52.10
2017-10-14T23:22:48.448Z,52.00
2017-10-14T23:25:17.322Z,53.60
2017-10-14T23:27:45.424Z,53.50
2017-10-14T23:30:14.496Z,53.70
2017-10-14T23:32:43.392Z,54.40
2017-10-14T23:35:13.198Z,54.20
2017-10-14T23:37:41.316Z,54.10
2017-10-14T23:40:09.523Z,54.30
2017-10-14T23:42:37.687Z,53.30
2017-10-14T23:45:05.808Z,53.00
2017-10-14T23:47:34.688Z,52.90
2017-10-14T23:50:03.573Z,52.80
2017-10-14T23:52:31.692Z,52.70
2017-10-14T23:54:59.803Z,52.90
2017-10-14T23:57:27.911Z,53.60
2017-10-14T23:59:56.788Z,53.30
